sensor_id;sensor_type;location;lat;lon;timestamp;P1;durP1;ratioP1;P2;durP2;ratioP2
66145;SDS011;52948;60.040;30.320;2023-03-14T00:00:06;3.08;;;1.67;;
66145;SDS011;52948;60.040;30.320;2023-03-14T00:05:12;3.47;;;1.27;;
66145;SDS011;52948;60.040;30.320;2023-03-14T00:10:35;1.42;;;1.20;;
66145;SDS011;52948;60.040;30.320;2023-03-14T00:16:01;2.72;;;1.40;;
66145;SDS011;52948;60.040;30.320;2023-03-14T00:21:22;2.95;;;1.70;;
66145;SDS011;52948;60.040;30.320;2023-03-14T00:26:43;3.20;;;1.38;;
66145;SDS011;52948;60.040;30.320;2023-03-14T00:32:04;1.40;;;1.30;;
66145;SDS011;52948;60.040;30.320;2023-03-14T00:37:26;2.83;;;1.73;;
66145;SDS011;52948;60.040;30.320;2023-03-14T00:42:47;2.83;;;1.50;;
66145;SDS011;52948;60.040;30.320;2023-03-14T00:48:08;1.70;;;1.30;;
66145;SDS011;52948;60.040;30.320;2023-03-14T00:53:35;1.90;;;1.20;;
66145;SDS011;52948;60.040;30.320;2023-03-14T00:58:38;3.78;;;1.67;;
66145;SDS011;52948;60.040;30.320;2023-03-14T01:03:40;1.52;;;1.27;;
66145;SDS011;52948;60.040;30.320;2023-03-14T01:08:44;2.35;;;1.63;;
66145;SDS011;52948;60.040;30.320;2023-03-14T01:13:47;2.13;;;1.55;;
66145;SDS011;52948;60.040;30.320;2023-03-14T01:18:49;1.90;;;1.50;;
66145;SDS011;52948;60.040;30.320;2023-03-14T01:24:11;1.48;;;1.38;;
66145;SDS011;52948;60.040;30.320;2023-03-14T01:29:32;2.38;;;1.63;;
66145;SDS011;52948;60.040;30.320;2023-03-14T01:34:53;1.60;;;1.50;;
66145;SDS011;52948;60.040;30.320;2023-03-14T01:39:56;1.35;;;1.15;;
66145;SDS011;52948;60.040;30.320;2023-03-14T01:44:59;3.00;;;1.38;;
66145;SDS011;52948;60.040;30.320;2023-03-14T01:50:08;0.93;;;0.93;;
66145;SDS011;52948;60.040;30.320;2023-03-14T01:55:17;1.08;;;0.98;;
66145;SDS011;52948;60.040;30.320;2023-03-14T02:00:22;1.38;;;1.23;;
66145;SDS011;52948;60.040;30.320;2023-03-14T02:05:26;1.48;;;1.38;;
66145;SDS011;52948;60.040;30.320;2023-03-14T02:10:39;1.42;;;0.82;;
66145;SDS011;52948;60.040;30.320;2023-03-14T02:15:44;1.48;;;1.10;;
66145;SDS011;52948;60.040;30.320;2023-03-14T02:26:22;1.05;;;1.05;;
66145;SDS011;52948;60.040;30.320;2023-03-14T02:31:28;2.38;;;1.50;;
66145;SDS011;52948;60.040;30.320;2023-03-14T02:36:31;1.20;;;1.10;;
66145;SDS011;52948;60.040;30.320;2023-03-14T02:41:34;2.03;;;1.25;;
66145;SDS011;52948;60.040;30.320;2023-03-14T02:46:39;1.25;;;1.13;;
66145;SDS011;52948;60.040;30.320;2023-03-14T02:51:42;0.90;;;0.90;;
66145;SDS011;52948;60.040;30.320;2023-03-14T02:56:45;2.35;;;1.20;;
66145;SDS011;52948;60.040;30.320;2023-03-14T03:01:48;1.20;;;1.10;;
66145;SDS011;52948;60.040;30.320;2023-03-14T03:06:50;1.48;;;1.00;;
66145;SDS011;52948;60.040;30.320;2023-03-14T03:11:53;1.17;;;1.00;;
66145;SDS011;52948;60.040;30.320;2023-03-14T03:16:58;1.17;;;1.05;;
66145;SDS011;52948;60.040;30.320;2023-03-14T03:22:00;0.75;;;0.75;;
66145;SDS011;52948;60.040;30.320;2023-03-14T03:27:02;2.90;;;1.20;;
66145;SDS011;52948;60.040;30.320;2023-03-14T03:32:05;3.13;;;1.27;;
66145;SDS011;52948;60.040;30.320;2023-03-14T03:37:07;2.55;;;1.52;;
66145;SDS011;52948;60.040;30.320;2023-03-14T03:42:13;1.50;;;1.40;;
66145;SDS011;52948;60.040;30.320;2023-03-14T03:47:15;0.98;;;0.90;;
66145;SDS011;52948;60.040;30.320;2023-03-14T03:52:18;1.10;;;1.00;;
66145;SDS011;52948;60.040;30.320;2023-03-14T03:57:21;0.50;;;0.50;;
66145;SDS011;52948;60.040;30.320;2023-03-14T04:02:23;0.70;;;0.70;;
66145;SDS011;52948;60.040;30.320;2023-03-14T04:07:26;1.95;;;0.82;;
66145;SDS011;52948;60.040;30.320;2023-03-14T04:12:28;1.10;;;1.00;;
66145;SDS011;52948;60.040;30.320;2023-03-14T04:17:40;1.50;;;1.08;;
66145;SDS011;52948;60.040;30.320;2023-03-14T04:22:42;2.53;;;1.13;;
66145;SDS011;52948;60.040;30.320;2023-03-14T04:27:46;1.42;;;0.75;;
66145;SDS011;52948;60.040;30.320;2023-03-14T04:32:55;0.88;;;0.80;;
66145;SDS011;52948;60.040;30.320;2023-03-14T04:38:00;4.28;;;1.17;;
66145;SDS011;52948;60.040;30.320;2023-03-14T04:43:03;1.73;;;1.20;;
66145;SDS011;52948;60.040;30.320;2023-03-14T04:48:06;0.80;;;0.80;;
66145;SDS011;52948;60.040;30.320;2023-03-14T04:53:08;0.43;;;0.43;;
66145;SDS011;52948;60.040;30.320;2023-03-14T04:58:11;2.25;;;1.20;;
66145;SDS011;52948;60.040;30.320;2023-03-14T05:03:14;0.93;;;0.85;;
66145;SDS011;52948;60.040;30.320;2023-03-14T05:08:47;0.52;;;0.52;;
66145;SDS011;52948;60.040;30.320;2023-03-14T05:14:01;1.52;;;0.90;;
66145;SDS011;52948;60.040;30.320;2023-03-14T05:19:21;0.75;;;0.55;;
66145;SDS011;52948;60.040;30.320;2023-03-14T05:24:42;1.83;;;1.30;;
66145;SDS011;52948;60.040;30.320;2023-03-14T05:30:05;1.13;;;0.70;;
66145;SDS011;52948;60.040;30.320;2023-03-14T05:35:18;2.00;;;1.00;;
66145;SDS011;52948;60.040;30.320;2023-03-14T05:40:38;2.30;;;1.55;;
66145;SDS011;52948;60.040;30.320;2023-03-14T05:45:40;0.68;;;0.68;;
66145;SDS011;52948;60.040;30.320;2023-03-14T05:51:01;1.83;;;1.00;;
66145;SDS011;52948;60.040;30.320;2023-03-14T06:01:50;0.60;;;0.50;;
66145;SDS011;52948;60.040;30.320;2023-03-14T06:06:56;1.63;;;0.82;;
66145;SDS011;52948;60.040;30.320;2023-03-14T06:11:58;0.73;;;0.60;;
66145;SDS011;52948;60.040;30.320;2023-03-14T06:17:01;0.90;;;0.55;;
66145;SDS011;52948;60.040;30.320;2023-03-14T06:22:09;1.40;;;0.50;;
66145;SDS011;52948;60.040;30.320;2023-03-14T06:27:13;0.50;;;0.50;;
66145;SDS011;52948;60.040;30.320;2023-03-14T06:32:17;0.63;;;0.60;;
66145;SDS011;52948;60.040;30.320;2023-03-14T06:37:21;2.45;;;0.75;;
66145;SDS011;52948;60.040;30.320;2023-03-14T06:42:24;0.57;;;0.50;;
66145;SDS011;52948;60.040;30.320;2023-03-14T06:47:28;2.22;;;1.00;;
66145;SDS011;52948;60.040;30.320;2023-03-14T06:52:31;1.88;;;0.95;;
66145;SDS011;52948;60.040;30.320;2023-03-14T06:57:33;1.02;;;0.93;;
66145;SDS011;52948;60.040;30.320;2023-03-14T07:02:36;1.42;;;0.85;;
66145;SDS011;52948;60.040;30.320;2023-03-14T07:07:38;1.20;;;0.52;;
66145;SDS011;52948;60.040;30.320;2023-03-14T07:12:40;1.63;;;1.00;;
66145;SDS011;52948;60.040;30.320;2023-03-14T07:17:42;1.92;;;0.85;;
66145;SDS011;52948;60.040;30.320;2023-03-14T07:22:47;1.92;;;1.30;;
66145;SDS011;52948;60.040;30.320;2023-03-14T07:27:51;0.70;;;0.70;;
66145;SDS011;52948;60.040;30.320;2023-03-14T07:32:53;0.32;;;0.32;;
66145;SDS011;52948;60.040;30.320;2023-03-14T07:37:58;1.45;;;0.88;;
66145;SDS011;52948;60.040;30.320;2023-03-14T07:43:09;0.88;;;0.75;;
66145;SDS011;52948;60.040;30.320;2023-03-14T07:48:20;2.08;;;0.95;;
66145;SDS011;52948;60.040;30.320;2023-03-14T07:53:24;3.30;;;1.75;;
66145;SDS011;52948;60.040;30.320;2023-03-14T07:58:26;2.03;;;1.00;;
66145;SDS011;52948;60.040;30.320;2023-03-14T08:03:28;2.03;;;1.70;;
66145;SDS011;52948;60.040;30.320;2023-03-14T08:08:31;1.23;;;0.75;;
66145;SDS011;52948;60.040;30.320;2023-03-14T08:13:33;0.95;;;0.95;;
66145;SDS011;52948;60.040;30.320;2023-03-14T08:18:35;1.58;;;0.98;;
66145;SDS011;52948;60.040;30.320;2023-03-14T08:23:38;0.98;;;0.73;;
66145;SDS011;52948;60.040;30.320;2023-03-14T08:28:40;4.63;;;1.75;;
66145;SDS011;52948;60.040;30.320;2023-03-14T08:33:42;1.95;;;1.40;;
66145;SDS011;52948;60.040;30.320;2023-03-14T08:38:44;0.63;;;0.63;;
66145;SDS011;52948;60.040;30.320;2023-03-14T08:43:47;3.80;;;1.85;;
66145;SDS011;52948;60.040;30.320;2023-03-14T08:48:49;2.90;;;1.15;;
66145;SDS011;52948;60.040;30.320;2023-03-14T08:53:51;2.28;;;1.30;;
66145;SDS011;52948;60.040;30.320;2023-03-14T08:58:53;4.85;;;2.03;;
66145;SDS011;52948;60.040;30.320;2023-03-14T09:03:55;2.08;;;0.98;;
66145;SDS011;52948;60.040;30.320;2023-03-14T09:08:58;3.22;;;1.48;;
66145;SDS011;52948;60.040;30.320;2023-03-14T09:14:00;2.53;;;1.98;;
66145;SDS011;52948;60.040;30.320;2023-03-14T09:19:02;2.28;;;1.27;;
66145;SDS011;52948;60.040;30.320;2023-03-14T09:24:05;2.63;;;1.70;;
66145;SDS011;52948;60.040;30.320;2023-03-14T09:29:07;2.25;;;1.38;;
66145;SDS011;52948;60.040;30.320;2023-03-14T09:34:09;3.45;;;2.10;;
66145;SDS011;52948;60.040;30.320;2023-03-14T09:39:11;1.65;;;1.15;;
66145;SDS011;52948;60.040;30.320;2023-03-14T09:44:32;1.00;;;0.95;;
66145;SDS011;52948;60.040;30.320;2023-03-14T09:49:38;2.70;;;1.58;;
66145;SDS011;52948;60.040;30.320;2023-03-14T09:54:49;1.20;;;0.57;;
66145;SDS011;52948;60.040;30.320;2023-03-14T10:00:03;1.30;;;1.20;;
66145;SDS011;52948;60.040;30.320;2023-03-14T10:05:16;2.72;;;1.33;;
66145;SDS011;52948;60.040;30.320;2023-03-14T10:10:20;2.22;;;1.58;;
66145;SDS011;52948;60.040;30.320;2023-03-14T10:15:27;8.45;;;2.92;;
66145;SDS011;52948;60.040;30.320;2023-03-14T10:20:34;6.88;;;1.95;;
66145;SDS011;52948;60.040;30.320;2023-03-14T10:25:45;2.45;;;1.50;;
66145;SDS011;52948;60.040;30.320;2023-03-14T10:30:48;3.80;;;2.13;;
66145;SDS011;52948;60.040;30.320;2023-03-14T10:35:54;3.03;;;1.63;;
66145;SDS011;52948;60.040;30.320;2023-03-14T10:41:23;1.33;;;1.00;;
66145;SDS011;52948;60.040;30.320;2023-03-14T10:46:29;1.33;;;1.00;;
66145;SDS011;52948;60.040;30.320;2023-03-14T10:51:51;2.38;;;1.05;;
66145;SDS011;52948;60.040;30.320;2023-03-14T10:56:57;2.42;;;1.15;;
66145;SDS011;52948;60.040;30.320;2023-03-14T11:02:47;1.45;;;1.08;;
66145;SDS011;52948;60.040;30.320;2023-03-14T11:07:45;3.90;;;1.60;;
66145;SDS011;52948;60.040;30.320;2023-03-14T11:28:36;1.90;;;1.30;;
66145;SDS011;52948;60.040;30.320;2023-03-14T11:39:15;4.15;;;1.85;;
66145;SDS011;52948;60.040;30.320;2023-03-14T11:44:22;5.82;;;1.20;;
66145;SDS011;52948;60.040;30.320;2023-03-14T11:49:57;5.43;;;2.75;;
66145;SDS011;52948;60.040;30.320;2023-03-14T11:55:33;2.50;;;1.33;;
66145;SDS011;52948;60.040;30.320;2023-03-14T12:00:38;1.17;;;1.08;;
66145;SDS011;52948;60.040;30.320;2023-03-14T12:05:48;5.68;;;2.05;;
66145;SDS011;52948;60.040;30.320;2023-03-14T12:11:14;3.20;;;1.58;;
66145;SDS011;52948;60.040;30.320;2023-03-14T12:16:22;1.88;;;1.23;;
66145;SDS011;52948;60.040;30.320;2023-03-14T12:21:43;2.75;;;1.52;;
66145;SDS011;52948;60.040;30.320;2023-03-14T12:26:51;1.02;;;0.68;;
66145;SDS011;52948;60.040;30.320;2023-03-14T13:04:51;3.70;;;2.03;;
66145;SDS011;52948;60.040;30.320;2023-03-14T13:15:17;5.80;;;1.95;;
66145;SDS011;52948;60.040;30.320;2023-03-14T13:20:36;4.50;;;1.95;;
66145;SDS011;52948;60.040;30.320;2023-03-14T13:25:40;3.10;;;2.05;;
66145;SDS011;52948;60.040;30.320;2023-03-14T13:30:46;3.72;;;1.85;;
66145;SDS011;52948;60.040;30.320;2023-03-14T13:36:00;4.13;;;2.33;;
66145;SDS011;52948;60.040;30.320;2023-03-14T13:41:06;3.95;;;2.03;;
66145;SDS011;52948;60.040;30.320;2023-03-14T13:46:13;5.35;;;2.22;;
66145;SDS011;52948;60.040;30.320;2023-03-14T13:51:17;5.18;;;2.55;;
66145;SDS011;52948;60.040;30.320;2023-03-14T13:56:21;4.45;;;2.08;;
66145;SDS011;52948;60.040;30.320;2023-03-14T14:01:28;4.50;;;2.38;;
66145;SDS011;52948;60.040;30.320;2023-03-14T14:06:36;6.68;;;2.83;;
66145;SDS011;52948;60.040;30.320;2023-03-14T14:11:44;8.60;;;3.40;;
66145;SDS011;52948;60.040;30.320;2023-03-14T14:16:49;8.95;;;3.45;;
66145;SDS011;52948;60.040;30.320;2023-03-14T14:21:52;6.22;;;2.67;;
66145;SDS011;52948;60.040;30.320;2023-03-14T14:26:59;5.78;;;2.55;;
66145;SDS011;52948;60.040;30.320;2023-03-14T14:37:18;4.35;;;2.65;;
66145;SDS011;52948;60.040;30.320;2023-03-14T14:42:24;3.40;;;1.58;;
66145;SDS011;52948;60.040;30.320;2023-03-14T14:47:28;6.10;;;2.95;;
66145;SDS011;52948;60.040;30.320;2023-03-14T14:52:33;7.80;;;3.10;;
66145;SDS011;52948;60.040;30.320;2023-03-14T14:57:41;3.83;;;1.83;;
66145;SDS011;52948;60.040;30.320;2023-03-14T15:02:54;4.25;;;1.60;;
66145;SDS011;52948;60.040;30.320;2023-03-14T15:08:01;4.32;;;3.03;;
66145;SDS011;52948;60.040;30.320;2023-03-14T15:13:03;3.58;;;2.05;;
66145;SDS011;52948;60.040;30.320;2023-03-14T15:18:25;3.80;;;2.40;;
66145;SDS011;52948;60.040;30.320;2023-03-14T15:23:33;5.05;;;2.08;;
66145;SDS011;52948;60.040;30.320;2023-03-14T15:28:35;3.53;;;2.25;;
66145;SDS011;52948;60.040;30.320;2023-03-14T15:33:38;5.80;;;2.50;;
66145;SDS011;52948;60.040;30.320;2023-03-14T15:38:40;3.85;;;2.30;;
66145;SDS011;52948;60.040;30.320;2023-03-14T15:43:46;5.20;;;2.75;;
66145;SDS011;52948;60.040;30.320;2023-03-14T15:48:49;6.25;;;2.60;;
66145;SDS011;52948;60.040;30.320;2023-03-14T15:53:56;6.78;;;3.25;;
66145;SDS011;52948;60.040;30.320;2023-03-14T15:59:02;2.67;;;1.60;;
66145;SDS011;52948;60.040;30.320;2023-03-14T16:04:04;4.75;;;2.33;;
66145;SDS011;52948;60.040;30.320;2023-03-14T16:09:07;6.20;;;2.13;;
66145;SDS011;52948;60.040;30.320;2023-03-14T16:14:10;6.82;;;3.53;;
66145;SDS011;52948;60.040;30.320;2023-03-14T16:19:12;8.60;;;4.03;;
66145;SDS011;52948;60.040;30.320;2023-03-14T16:24:14;5.07;;;2.35;;
66145;SDS011;52948;60.040;30.320;2023-03-14T16:29:16;8.15;;;3.63;;
66145;SDS011;52948;60.040;30.320;2023-03-14T16:34:18;8.20;;;3.53;;
66145;SDS011;52948;60.040;30.320;2023-03-14T16:39:21;12.13;;;3.45;;
66145;SDS011;52948;60.040;30.320;2023-03-14T16:44:23;8.88;;;3.53;;
66145;SDS011;52948;60.040;30.320;2023-03-14T16:49:26;7.95;;;2.88;;
66145;SDS011;52948;60.040;30.320;2023-03-14T16:54:28;7.82;;;3.55;;
66145;SDS011;52948;60.040;30.320;2023-03-14T16:59:32;5.25;;;3.67;;
66145;SDS011;52948;60.040;30.320;2023-03-14T17:04:34;8.10;;;3.53;;
66145;SDS011;52948;60.040;30.320;2023-03-14T17:09:36;6.47;;;3.55;;
66145;SDS011;52948;60.040;30.320;2023-03-14T17:14:38;8.68;;;4.18;;
66145;SDS011;52948;60.040;30.320;2023-03-14T17:19:41;6.90;;;4.22;;
66145;SDS011;52948;60.040;30.320;2023-03-14T17:24:43;9.68;;;3.25;;
66145;SDS011;52948;60.040;30.320;2023-03-14T17:29:45;9.70;;;4.65;;
66145;SDS011;52948;60.040;30.320;2023-03-14T17:34:48;4.57;;;2.83;;
66145;SDS011;52948;60.040;30.320;2023-03-14T17:39:50;6.28;;;4.65;;
66145;SDS011;52948;60.040;30.320;2023-03-14T17:44:52;10.13;;;4.35;;
66145;SDS011;52948;60.040;30.320;2023-03-14T17:49:54;9.80;;;3.35;;
66145;SDS011;52948;60.040;30.320;2023-03-14T17:54:57;5.85;;;3.47;;
66145;SDS011;52948;60.040;30.320;2023-03-14T18:00:00;8.80;;;3.80;;
66145;SDS011;52948;60.040;30.320;2023-03-14T18:05:02;8.25;;;4.05;;
66145;SDS011;52948;60.040;30.320;2023-03-14T18:10:05;8.43;;;3.92;;
66145;SDS011;52948;60.040;30.320;2023-03-14T18:15:10;7.90;;;4.38;;
66145;SDS011;52948;60.040;30.320;2023-03-14T18:20:14;6.50;;;4.25;;
66145;SDS011;52948;60.040;30.320;2023-03-14T18:25:16;14.18;;;5.45;;
66145;SDS011;52948;60.040;30.320;2023-03-14T18:30:18;12.52;;;5.65;;
66145;SDS011;52948;60.040;30.320;2023-03-14T18:35:21;9.80;;;4.90;;
66145;SDS011;52948;60.040;30.320;2023-03-14T18:40:24;10.30;;;4.85;;
66145;SDS011;52948;60.040;30.320;2023-03-14T18:45:26;8.73;;;4.68;;
66145;SDS011;52948;60.040;30.320;2023-03-14T18:50:28;7.70;;;4.82;;
66145;SDS011;52948;60.040;30.320;2023-03-14T18:55:31;7.70;;;3.80;;
66145;SDS011;52948;60.040;30.320;2023-03-14T19:00:33;12.75;;;4.40;;
66145;SDS011;52948;60.040;30.320;2023-03-14T19:05:41;12.57;;;5.88;;
66145;SDS011;52948;60.040;30.320;2023-03-14T19:10:44;10.77;;;4.38;;
66145;SDS011;52948;60.040;30.320;2023-03-14T19:15:47;9.38;;;4.50;;
66145;SDS011;52948;60.040;30.320;2023-03-14T19:20:59;6.15;;;3.40;;
66145;SDS011;52948;60.040;30.320;2023-03-14T19:26:06;11.27;;;5.22;;
66145;SDS011;52948;60.040;30.320;2023-03-14T19:31:10;13.65;;;5.13;;
66145;SDS011;52948;60.040;30.320;2023-03-14T19:36:18;8.40;;;5.53;;
66145;SDS011;52948;60.040;30.320;2023-03-14T19:41:24;9.55;;;4.70;;
66145;SDS011;52948;60.040;30.320;2023-03-14T19:46:27;10.23;;;5.13;;
66145;SDS011;52948;60.040;30.320;2023-03-14T19:51:31;13.88;;;6.93;;
66145;SDS011;52948;60.040;30.320;2023-03-14T19:56:35;18.70;;;7.60;;
66145;SDS011;52948;60.040;30.320;2023-03-14T20:01:39;10.73;;;4.97;;
66145;SDS011;52948;60.040;30.320;2023-03-14T20:06:42;10.15;;;4.90;;
66145;SDS011;52948;60.040;30.320;2023-03-14T20:11:44;9.00;;;5.20;;
66145;SDS011;52948;60.040;30.320;2023-03-14T20:16:47;10.02;;;5.32;;
66145;SDS011;52948;60.040;30.320;2023-03-14T20:21:50;15.60;;;8.43;;
66145;SDS011;52948;60.040;30.320;2023-03-14T20:26:52;17.65;;;8.57;;
66145;SDS011;52948;60.040;30.320;2023-03-14T20:31:54;21.90;;;9.50;;
66145;SDS011;52948;60.040;30.320;2023-03-14T20:36:57;17.77;;;7.93;;
66145;SDS011;52948;60.040;30.320;2023-03-14T20:41:59;16.25;;;8.68;;
66145;SDS011;52948;60.040;30.320;2023-03-14T20:47:01;17.35;;;8.27;;
66145;SDS011;52948;60.040;30.320;2023-03-14T20:52:04;14.55;;;8.63;;
66145;SDS011;52948;60.040;30.320;2023-03-14T20:57:06;15.55;;;7.22;;
66145;SDS011;52948;60.040;30.320;2023-03-14T21:02:13;12.02;;;6.40;;
66145;SDS011;52948;60.040;30.320;2023-03-14T21:07:16;14.27;;;7.70;;
66145;SDS011;52948;60.040;30.320;2023-03-14T21:12:18;13.90;;;7.60;;
66145;SDS011;52948;60.040;30.320;2023-03-14T21:17:20;11.05;;;6.68;;
66145;SDS011;52948;60.040;30.320;2023-03-14T21:22:23;15.25;;;8.25;;
66145;SDS011;52948;60.040;30.320;2023-03-14T21:27:27;13.93;;;7.75;;
66145;SDS011;52948;60.040;30.320;2023-03-14T21:32:33;10.95;;;6.88;;
66145;SDS011;52948;60.040;30.320;2023-03-14T21:37:36;10.02;;;6.65;;
66145;SDS011;52948;60.040;30.320;2023-03-14T21:42:38;9.95;;;6.13;;
66145;SDS011;52948;60.040;30.320;2023-03-14T21:47:40;11.63;;;6.38;;
66145;SDS011;52948;60.040;30.320;2023-03-14T21:52:46;10.48;;;6.55;;
66145;SDS011;52948;60.040;30.320;2023-03-14T21:58:13;6.13;;;4.30;;
66145;SDS011;52948;60.040;30.320;2023-03-14T22:03:40;7.90;;;4.17;;
66145;SDS011;52948;60.040;30.320;2023-03-14T22:08:42;6.95;;;4.63;;
66145;SDS011;52948;60.040;30.320;2023-03-14T22:13:44;5.35;;;3.80;;
66145;SDS011;52948;60.040;30.320;2023-03-14T22:18:47;6.60;;;4.13;;
66145;SDS011;52948;60.040;30.320;2023-03-14T22:23:49;5.00;;;3.40;;
66145;SDS011;52948;60.040;30.320;2023-03-14T22:28:52;6.30;;;3.58;;
66145;SDS011;52948;60.040;30.320;2023-03-14T22:33:58;6.25;;;3.60;;
66145;SDS011;52948;60.040;30.320;2023-03-14T22:39:00;5.28;;;3.60;;
66145;SDS011;52948;60.040;30.320;2023-03-14T22:44:03;4.75;;;3.47;;
66145;SDS011;52948;60.040;30.320;2023-03-14T22:49:09;4.82;;;3.40;;
66145;SDS011;52948;60.040;30.320;2023-03-14T22:54:11;3.53;;;3.10;;
66145;SDS011;52948;60.040;30.320;2023-03-14T22:59:13;4.45;;;3.63;;
66145;SDS011;52948;60.040;30.320;2023-03-14T23:04:19;4.55;;;3.67;;
66145;SDS011;52948;60.040;30.320;2023-03-14T23:09:25;5.53;;;3.20;;
66145;SDS011;52948;60.040;30.320;2023-03-14T23:14:28;5.43;;;3.10;;
66145;SDS011;52948;60.040;30.320;2023-03-14T23:19:30;4.95;;;3.22;;
66145;SDS011;52948;60.040;30.320;2023-03-14T23:24:32;5.25;;;3.60;;
66145;SDS011;52948;60.040;30.320;2023-03-14T23:29:34;5.05;;;3.85;;
66145;SDS011;52948;60.040;30.320;2023-03-14T23:34:40;3.58;;;3.17;;
66145;SDS011;52948;60.040;30.320;2023-03-14T23:39:47;4.63;;;3.60;;
66145;SDS011;52948;60.040;30.320;2023-03-14T23:44:53;4.18;;;3.28;;
66145;SDS011;52948;60.040;30.320;2023-03-14T23:49:56;3.33;;;3.00;;
66145;SDS011;52948;60.040;30.320;2023-03-14T23:54:58;4.63;;;3.28;;
